Time;durP1;ratioP1;P1;durP2;ratioP2;P2;SDS_P1;SDS_P2;PMS_P1;PMS_P2;Temp;Humidity;BMP_temperature;BMP_pressure;BME280_temperature;BME280_humidity;BME280_pressure;Samples;Min_cycle;Max_cycle;Signal;HPM_P1;HPM_P2
2023/08/24 00:01:44;;;;;;;;;;;;;;;17.07;88.2666;101956.1;;;;-81
2023/08/24 00:06:43;;;;;;;;;;;;;;;17.16;87.04004;101932.2;;;;-81
2023/08/24 00:11:45;;;;;;;;;;;;;;;17.35;87.94141;101928.5;;;;-80
2023/08/24 00:16:45;;;;;;;;;;;;;;;17.46;87.74902;101927;;;;-80
2023/08/24 00:21:43;;;;;;;;;;;;;;;17.54;89.46875;101927.9;;;;-79
2023/08/24 00:26:44;;;;;;;;;;;;;;;17.56;89.70898;101918.2;;;;-80
2023/08/24 00:29:47;;;;;;;6.6;3.4;;;;;;;;;;;;;-82
2023/08/24 00:31:43;;;;;;;;;;;;;;;17.61;89.48535;101923.9;;;;-81
2023/08/24 00:36:45;;;;;;;;;;;;;;;17.68;89.20605;101920.3;;;;-79
2023/08/24 00:41:44;;;;;;;;;;;;;;;17.76;89.25391;101912;;;;-80
2023/08/24 00:46:45;;;;;;;;;;;;;;;17.82;88.97754;101908.2;;;;-79
2023/08/24 00:51:54;;;;;;;;;;;;;;;17.87;87.25977;101905.9;;;;-79
2023/08/24 00:56:53;;;;;;;;;;;;;;;17.93;86.6748;101905.8;;;;-79
2023/08/24 00:59:50;;;;;;;6.4;2.4;;;;;;;;;;;;;-79
2023/08/24 01:01:45;;;;;;;;;;;;;;;17.95;86.8584;101903.5;;;;-81
2023/08/24 01:06:46;;;;;;;;;;;;;;;17.98;86.95313;101925.3;;;;-79
2023/08/24 01:11:51;;;;;;;;;;;;;;;18.03;86.81641;101923.5;;;;-81
2023/08/24 01:16:49;;;;;;;;;;;;;;;18.05;87.5293;101929;;;;-80
2023/08/24 01:21:44;;;;;;;;;;;;;;;18.01;88.67871;101907.3;;;;-79
2023/08/24 01:26:50;;;;;;;;;;;;;;;18;88.7998;101892.3;;;;-80
2023/08/24 01:29:56;;;;;;;7.6;3.2;;;;;;;;;;;;;-82
2023/08/24 01:31:46;;;;;;;;;;;;;;;18.02;89.72266;101892.2;;;;-79
2023/08/24 01:36:44;;;;;;;;;;;;;;;17.99;89.53516;101886.4;;;;-80
2023/08/24 01:41:47;;;;;;;;;;;;;;;17.99;88.04395;101890.8;;;;-81
2023/08/24 01:46:46;;;;;;;;;;;;;;;17.94;88.53906;101892;;;;-80
2023/08/24 01:51:44;;;;;;;;;;;;;;;17.92;87.94043;101881.3;;;;-79
2023/08/24 01:56:46;;;;;;;;;;;;;;;17.88;88.90918;101874.3;;;;-80
2023/08/24 01:59:56;;;;;;;7.8;3.6;;;;;;;;;;;;;-79
2023/08/24 02:01:43;;;;;;;;;;;;;;;17.85;88.16309;101866.8;;;;-81
2023/08/24 02:06:46;;;;;;;;;;;;;;;17.88;89.24609;101865.4;;;;-79
2023/08/24 02:11:44;;;;;;;;;;;;;;;17.86;89.33203;101869.5;;;;-79
2023/08/24 02:16:44;;;;;;;;;;;;;;;17.83;90.53809;101871.1;;;;-79
2023/08/24 02:21:44;;;;;;;;;;;;;;;17.78;90.05664;101869.9;;;;-80
2023/08/24 02:26:44;;;;;;;;;;;;;;;17.77;90.80566;101863.6;;;;-79
2023/08/24 02:29:59;;;;;;;8.8;4.6;;;;;;;;;;;;;-80
2023/08/24 02:31:44;;;;;;;;;;;;;;;17.74;91.22461;101852.6;;;;-80
2023/08/24 02:36:44;;;;;;;;;;;;;;;17.67;92.27637;101851.3;;;;-78
2023/08/24 02:41:44;;;;;;;;;;;;;;;17.61;93.53027;101857.1;;;;-79
2023/08/24 02:46:43;;;;;;;;;;;;;;;17.55;94.05273;101852.3;;;;-79
2023/08/24 02:51:44;;;;;;;;;;;;;;;17.41;94.29492;101819.9;;;;-81
2023/08/24 02:56:46;;;;;;;;;;;;;;;17.39;96.15723;101809.8;;;;-80
2023/08/24 03:00:03;;;;;;;11.2;6.1;;;;;;;;;;;;;-77
2023/08/24 03:01:44;;;;;;;;;;;;;;;17.35;97.05566;101805.5;;;;-79
2023/08/24 03:06:46;;;;;;;;;;;;;;;17.32;98.37793;101820;;;;-79
2023/08/24 03:11:44;;;;;;;;;;;;;;;17.26;98.90234;101813.8;;;;-79
2023/08/24 03:16:44;;;;;;;;;;;;;;;17.24;98.8291;101812.5;;;;-79
2023/08/24 03:21:43;;;;;;;;;;;;;;;17.2;98.9209;101811.5;;;;-80
2023/08/24 03:26:43;;;;;;;;;;;;;;;17.16;97.27051;101798.5;;;;-80
2023/08/24 03:30:05;;;;;;;9.8;5.7;;;;;;;;;;;;;-81
2023/08/24 03:31:43;;;;;;;;;;;;;;;17.16;98.36523;101787.5;;;;-78
2023/08/24 03:36:44;;;;;;;;;;;;;;;17.02;98.91406;101780.9;;;;-79
2023/08/24 03:41:44;;;;;;;;;;;;;;;17.05;98.91113;101788;;;;-80
2023/08/24 03:46:44;;;;;;;;;;;;;;;16.99;98.875;101786.7;;;;-81
2023/08/24 03:51:45;;;;;;;;;;;;;;;16.97;100;101779.3;;;;-79
2023/08/24 03:56:44;;;;;;;;;;;;;;;16.97;100;101790.6;;;;-79
2023/08/24 04:00:11;;;;;;;11.8;6.5;;;;;;;;;;;;;-80
2023/08/24 04:01:43;;;;;;;;;;;;;;;16.96;100;101787.6;;;;-79
2023/08/24 04:06:43;;;;;;;;;;;;;;;16.96;100;101798.4;;;;-79
2023/08/24 04:11:43;;;;;;;;;;;;;;;16.94;100;101797.8;;;;-80
2023/08/24 04:16:44;;;;;;;;;;;;;;;16.92;100;101801.6;;;;-79
2023/08/24 04:21:46;;;;;;;;;;;;;;;16.82;100;101795.2;;;;-78
2023/08/24 04:26:43;;;;;;;;;;;;;;;16.81;100;101788.9;;;;-80
2023/08/24 04:30:11;;;;;;;10.6;6.2;;;;;;;;;;;;;-78
2023/08/24 04:31:44;;;;;;;;;;;;;;;16.79;100;101790;;;;-80
2023/08/24 04:36:43;;;;;;;;;;;;;;;16.78;100;101778.2;;;;-80
2023/08/24 04:41:44;;;;;;;;;;;;;;;16.76;100;101778;;;;-80
2023/08/24 04:46:46;;;;;;;;;;;;;;;16.74;100;101791;;;;-79
2023/08/24 04:51:43;;;;;;;;;;;;;;;16.76;100;101788.7;;;;-81
2023/08/24 04:56:46;;;;;;;;;;;;;;;16.79;100;101773.3;;;;-79
2023/08/24 05:00:16;;;;;;;11.9;6.9;;;;;;;;;;;;;-78
2023/08/24 05:01:44;;;;;;;;;;;;;;;16.86;100;101770.5;;;;-80
2023/08/24 05:06:44;;;;;;;;;;;;;;;16.92;100;101752;;;;-80
2023/08/24 05:11:44;;;;;;;;;;;;;;;16.97;100;101742.6;;;;-79
2023/08/24 05:16:44;;;;;;;;;;;;;;;17.01;100;101746;;;;-81
2023/08/24 05:21:44;;;;;;;;;;;;;;;17.06;100;101748.2;;;;-79
2023/08/24 05:26:44;;;;;;;;;;;;;;;17.12;100;101757.7;;;;-79
2023/08/24 05:30:17;;;;;;;12.1;6.9;;;;;;;;;;;;;-80
2023/08/24 05:31:45;;;;;;;;;;;;;;;17.15;100;101753.3;;;;-80
2023/08/24 05:36:43;;;;;;;;;;;;;;;17.29;99.65625;101746;;;;-81
2023/08/24 05:41:43;;;;;;;;;;;;;;;17.35;99.7041;101742;;;;-80
2023/08/24 05:46:46;;;;;;;;;;;;;;;17.45;98.91113;101738.7;;;;-81
2023/08/24 05:51:44;;;;;;;;;;;;;;;18.11;95.52832;101740.6;;;;-80
2023/08/24 05:56:43;;;;;;;;;;;;;;;18.91;91.4082;101734.2;;;;-80
2023/08/24 06:00:18;;;;;;;11;5.5;;;;;;;;;;;;;-79
2023/08/24 06:01:46;;;;;;;;;;;;;;;19.54;88.19238;101722.9;;;;-82
2023/08/24 06:06:43;;;;;;;;;;;;;;;19.83;85.92676;101695.8;;;;-80
2023/08/24 06:11:45;;;;;;;;;;;;;;;20.01;85.34277;101702.8;;;;-80
2023/08/24 06:16:44;;;;;;;;;;;;;;;20.35;83.07617;101694.8;;;;-80
2023/08/24 06:21:46;;;;;;;;;;;;;;;20.37;82.86719;101676.1;;;;-81
2023/08/24 06:26:43;;;;;;;;;;;;;;;20.75;80.47949;101660.2;;;;-79
2023/08/24 06:30:21;;;;;;;10.4;5.6;;;;;;;;;;;;;-79
2023/08/24 06:31:43;;;;;;;;;;;;;;;20.9;79.5332;101645.3;;;;-78
2023/08/24 06:36:43;;;;;;;;;;;;;;;20.97;79.04688;101650.5;;;;-80
2023/08/24 06:41:45;;;;;;;;;;;;;;;21.1;78.40039;101647.7;;;;-79
2023/08/24 06:46:46;;;;;;;;;;;;;;;21.51;76.23438;101639.1;;;;-80
2023/08/24 06:51:52;;;;;;;;;;;;;;;21.29;76.20996;101622.2;;;;-80
2023/08/24 06:56:46;;;;;;;;;;;;;;;20.85;78.76563;101634.6;;;;-80
2023/08/24 07:00:26;;;;;;;10;5.6;;;;;;;;;;;;;-80
2023/08/24 07:01:52;;;;;;;;;;;;;;;20.74;79.87891;101642;;;;-79
2023/08/24 07:06:47;;;;;;;;;;;;;;;21.41;76.11621;101637.9;;;;-80
2023/08/24 07:11:45;;;;;;;;;;;;;;;21.46;76.73828;101646.4;;;;-81
2023/08/24 07:16:46;;;;;;;;;;;;;;;21.36;77.35547;101655.9;;;;-81
2023/08/24 07:21:46;;;;;;;;;;;;;;;21.09;78.44434;101617.7;;;;-79
2023/08/24 07:26:45;;;;;;;;;;;;;;;21.35;78.02344;101599.5;;;;-80
2023/08/24 07:30:30;;;;;;;11.2;6.6;;;;;;;;;;;;;-82
2023/08/24 07:31:45;;;;;;;;;;;;;;;21.67;76.70508;101607.8;;;;-81
2023/08/24 07:36:49;;;;;;;;;;;;;;;21.81;76.75293;101607;;;;-80
2023/08/24 07:41:45;;;;;;;;;;;;;;;21.69;76.62793;101599.7;;;;-80
2023/08/24 07:46:44;;;;;;;;;;;;;;;21.46;78.40625;101607.7;;;;-82
2023/08/24 07:51:47;;;;;;;;;;;;;;;21.31;78.93652;101596.5;;;;-81
2023/08/24 07:56:43;;;;;;;;;;;;;;;21.58;77.85938;101594.4;;;;-80
2023/08/24 08:00:32;;;;;;;14;7.3;;;;;;;;;;;;;-80
2023/08/24 08:01:43;;;;;;;;;;;;;;;22.06;77.02344;101594.7;;;;-80
2023/08/24 08:06:43;;;;;;;;;;;;;;;22.97;73.46387;101587.5;;;;-79
2023/08/24 08:11:43;;;;;;;;;;;;;;;23.68;70.38965;101577.5;;;;-80
2023/08/24 08:16:43;;;;;;;;;;;;;;;23.61;67.95508;101568;;;;-80
2023/08/24 08:21:43;;;;;;;;;;;;;;;23.45;68.38867;101551.4;;;;-79
2023/08/24 08:26:44;;;;;;;;;;;;;;;23.3;68.35449;101557.8;;;;-80
2023/08/24 08:30:37;;;;;;;12.5;6.8;;;;;;;;;;;;;-79
2023/08/24 08:31:44;;;;;;;;;;;;;;;23.26;68.82715;101572.7;;;;-79
2023/08/24 08:36:44;;;;;;;;;;;;;;;23.02;69.24805;101575;;;;-80
2023/08/24 08:41:56;;;;;;;;;;;;;;;22.87;69.79492;101572.3;;;;-82
2023/08/24 08:46:46;;;;;;;;;;;;;;;22.62;71.65039;101562.8;;;;-79
2023/08/24 08:51:43;;;;;;;;;;;;;;;22.57;72.38184;101553.7;;;;-81
2023/08/24 08:56:44;;;;;;;;;;;;;;;22.29;73.7959;101540.1;;;;-80
2023/08/24 09:00:40;;;;;;;16.2;9.6;;;;;;;;;;;;;-81
2023/08/24 09:01:47;;;;;;;;;;;;;;;22.12;75.38379;101532.1;;;;-81
2023/08/24 09:06:44;;;;;;;;;;;;;;;22.04;76.30273;101519.5;;;;-80
2023/08/24 09:11:47;;;;;;;;;;;;;;;22;77.09082;101506.8;;;;-80
2023/08/24 09:16:44;;;;;;;;;;;;;;;21.94;77.32031;101514.2;;;;-79
2023/08/24 09:21:45;;;;;;;;;;;;;;;21.89;77.8457;101497.2;;;;-78
2023/08/24 09:26:46;;;;;;;;;;;;;;;21.84;76.39355;101519.8;;;;-80
2023/08/24 09:30:44;;;;;;;14.1;8.2;;;;;;;;;;;;;-80
2023/08/24 09:31:51;;;;;;;;;;;;;;;21.75;77.16309;101518;;;;-79
2023/08/24 09:36:44;;;;;;;;;;;;;;;21.65;77.56445;101516.3;;;;-82
2023/08/24 09:41:50;;;;;;;;;;;;;;;21.63;77.86719;101511.9;;;;-81
2023/08/24 09:46:46;;;;;;;;;;;;;;;21.59;79.65625;101510.8;;;;-79
2023/08/24 09:51:44;;;;;;;;;;;;;;;21.44;81.39941;101490.9;;;;-81
2023/08/24 09:56:49;;;;;;;;;;;;;;;21.29;83.80762;101490.6;;;;-80
2023/08/24 10:00:55;;;;;;;16.5;9.8;;;;;;;;;;;;;-80
2023/08/24 10:01:50;;;;;;;;;;;;;;;21.25;85.125;101482.6;;;;-78
2023/08/24 10:06:55;;;;;;;;;;;;;;;21.21;86.9502;101498.5;;;;-79
2023/08/24 10:11:51;;;;;;;;;;;;;;;21.2;87.89648;101510.7;;;;-80
2023/08/24 10:16:53;;;;;;;;;;;;;;;21.2;89.12012;101529.6;;;;-79
2023/08/24 10:21:46;;;;;;;;;;;;;;;21.11;91.18164;101535.1;;;;-79
2023/08/24 10:26:46;;;;;;;;;;;;;;;20.98;93.88574;101540.7;;;;-80
2023/08/24 10:30:51;;;;;;;23.8;12.9;;;;;;;;;;;;;-79
2023/08/24 10:31:46;;;;;;;;;;;;;;;20.88;96.2334;101536;;;;-79
2023/08/24 10:36:52;;;;;;;;;;;;;;;20.81;98.70801;101534.7;;;;-78
2023/08/24 10:41:59;;;;;;;;;;;;;;;20.69;100;101526.4;;;;-79
2023/08/24 10:46:43;;;;;;;;;;;;;;;20.64;100;101530.3;;;;-79
2023/08/24 10:51:50;;;;;;;;;;;;;;;20.33;100;101585.1;;;;-78
2023/08/24 10:56:43;;;;;;;;;;;;;;;19.72;100;101579.4;;;;-79
2023/08/24 11:00:55;;;;;;;31.1;19;;;;;;;;;;;;;-80
2023/08/24 11:01:46;;;;;;;;;;;;;;;19.61;100;101579.8;;;;-79
2023/08/24 11:06:53;;;;;;;;;;;;;;;19.49;100;101594.1;;;;-80
2023/08/24 11:11:58;;;;;;;;;;;;;;;19.38;100;101570.7;;;;-82
2023/08/24 11:16:49;;;;;;;;;;;;;;;19.35;100;101557.2;;;;-81
2023/08/24 11:21:45;;;;;;;;;;;;;;;19.31;100;101516.9;;;;-80
2023/08/24 11:26:50;;;;;;;;;;;;;;;19.35;100;101475.7;;;;-82
2023/08/24 11:30:58;;;;;;;37.9;24.7;;;;;;;;;;;;;-82
2023/08/24 11:31:43;;;;;;;;;;;;;;;19.52;100;101484.4;;;;-81
2023/08/24 11:36:50;;;;;;;;;;;;;;;19.72;100;101467.6;;;;-82
2023/08/24 11:41:44;;;;;;;;;;;;;;;19.89;100;101454.1;;;;-82
2023/08/24 11:46:43;;;;;;;;;;;;;;;19.88;100;101430.7;;;;-80
2023/08/24 11:51:44;;;;;;;;;;;;;;;19.86;100;101427.3;;;;-80
2023/08/24 11:56:48;;;;;;;;;;;;;;;19.84;100;101422;;;;-82
2023/08/24 12:01:09;;;;;;;36;21.8;;;;;;;;;;;;;-81
2023/08/24 12:01:44;;;;;;;;;;;;;;;19.79;100;101410.6;;;;-80
2023/08/24 12:06:47;;;;;;;;;;;;;;;20.02;100;101396.2;;;;-81
2023/08/24 12:11:47;;;;;;;;;;;;;;;20.22;100;101396.1;;;;-81
2023/08/24 12:16:46;;;;;;;;;;;;;;;20.44;100;101387.4;;;;-81
2023/08/24 12:21:47;;;;;;;;;;;;;;;20.61;100;101359;;;;-80
2023/08/24 12:26:44;;;;;;;;;;;;;;;20.67;100;101350.8;;;;-80
2023/08/24 12:31:03;;;;;;;21.7;15;;;;;;;;;;;;;-80
2023/08/24 12:31:48;;;;;;;;;;;;;;;20.89;100;101363.7;;;;-80
2023/08/24 12:36:43;;;;;;;;;;;;;;;21.15;100;101366.8;;;;-81
2023/08/24 12:41:43;;;;;;;;;;;;;;;21.39;100;101347.6;;;;-79
2023/08/24 12:46:45;;;;;;;;;;;;;;;21.47;100;101324.4;;;;-80
2023/08/24 12:51:43;;;;;;;;;;;;;;;21.62;100;101307.4;;;;-81
2023/08/24 12:56:44;;;;;;;;;;;;;;;21.6;100;101308.8;;;;-80
2023/08/24 13:01:09;;;;;;;15.1;10.3;;;;;;;;;;;;;-82
2023/08/24 13:01:44;;;;;;;;;;;;;;;21.46;100;101298.8;;;;-82
2023/08/24 13:06:43;;;;;;;;;;;;;;;21.41;100;101291.1;;;;-81
2023/08/24 13:11:43;;;;;;;;;;;;;;;21.38;100;101286.3;;;;-80
2023/08/24 13:16:43;;;;;;;;;;;;;;;21.47;100;101285.8;;;;-81
2023/08/24 13:21:43;;;;;;;;;;;;;;;21.51;100;101286.7;;;;-79
2023/08/24 13:26:44;;;;;;;;;;;;;;;21.48;100;101267.5;;;;-80
2023/08/24 13:31:12;;;;;;;15.6;9.6;;;;;;;;;;;;;-80
2023/08/24 13:31:43;;;;;;;;;;;;;;;21.59;100;101261.5;;;;-80
2023/08/24 13:36:43;;;;;;;;;;;;;;;21.68;100;101259.7;;;;-80
2023/08/24 13:41:43;;;;;;;;;;;;;;;21.78;100;101265.3;;;;-81
2023/08/24 13:46:43;;;;;;;;;;;;;;;21.75;100;101281.6;;;;-81
2023/08/24 13:51:44;;;;;;;;;;;;;;;21.73;100;101275;;;;-79
2023/08/24 13:56:43;;;;;;;;;;;;;;;21.87;99.44922;101265.4;;;;-81
2023/08/24 14:01:15;;;;;;;11.2;7.7;;;;;;;;;;;;;-81
2023/08/24 14:01:44;;;;;;;;;;;;;;;21.99;98.19043;101285.7;;;;-80
2023/08/24 14:06:45;;;;;;;;;;;;;;;22.03;95.96094;101279.7;;;;-81
2023/08/24 14:11:43;;;;;;;;;;;;;;;22.02;94.17188;101285;;;;-81
2023/08/24 14:16:43;;;;;;;;;;;;;;;22.12;93.76367;101285.9;;;;-81
2023/08/24 14:21:43;;;;;;;;;;;;;;;22.19;92.7373;101281.8;;;;-81
2023/08/24 14:26:45;;;;;;;;;;;;;;;22.37;93.80371;101272.5;;;;-81
2023/08/24 14:31:18;;;;;;;8.7;5.5;;;;;;;;;;;;;-81
2023/08/24 14:31:55;;;;;;;;;;;;;;;22.42;90.41504;101269.8;;;;-79
2023/08/24 14:36:43;;;;;;;;;;;;;;;22.42;92.0127;101273;;;;-82
2023/08/24 14:41:45;;;;;;;;;;;;;;;22.52;92.06836;101265.8;;;;-81
2023/08/24 14:46:48;;;;;;;;;;;;;;;22.61;91.87207;101256.2;;;;-79
2023/08/24 14:51:43;;;;;;;;;;;;;;;22.61;92.05273;101255.9;;;;-82
2023/08/24 14:56:43;;;;;;;;;;;;;;;22.63;92.0791;101243.5;;;;-81
2023/08/24 15:01:22;;;;;;;10;5.4;;;;;;;;;;;;;-82
2023/08/24 15:01:46;;;;;;;;;;;;;;;22.64;91.18555;101238.2;;;;-80
2023/08/24 15:06:46;;;;;;;;;;;;;;;22.6;90.15625;101229;;;;-81
2023/08/24 15:11:45;;;;;;;;;;;;;;;22.57;89.00586;101219.9;;;;-81
2023/08/24 15:16:43;;;;;;;;;;;;;;;22.57;89.08496;101224.1;;;;-81
2023/08/24 15:21:46;;;;;;;;;;;;;;;22.55;90.19238;101207.5;;;;-83
2023/08/24 15:26:44;;;;;;;;;;;;;;;22.54;89.30664;101217.1;;;;-81
2023/08/24 15:31:32;;;;;;;10.4;6.4;;;;;;;;;;;;;-80
2023/08/24 15:31:46;;;;;;;;;;;;;;;22.5;89.93359;101210.6;;;;-80
2023/08/24 15:36:45;;;;;;;;;;;;;;;22.46;89.60938;101201.6;;;;-81
2023/08/24 15:41:46;;;;;;;;;;;;;;;22.48;89.69043;101181;;;;-80
2023/08/24 15:46:47;;;;;;;;;;;;;;;22.43;88.83105;101180;;;;-83
2023/08/24 15:51:45;;;;;;;;;;;;;;;22.43;88.99219;101170.4;;;;-80
2023/08/24 15:56:48;;;;;;;;;;;;;;;22.36;87.70703;101150.8;;;;-81
2023/08/24 16:01:31;;;;;;;8.5;5.3;;;;;;;;;;;;;-79
2023/08/24 16:01:43;;;;;;;;;;;;;;;22.32;85.98438;101158.5;;;;-79
2023/08/24 16:06:45;;;;;;;;;;;;;;;22.25;86.4707;101139.8;;;;-80
2023/08/24 16:11:46;;;;;;;;;;;;;;;22.27;86.82617;101135.2;;;;-79
2023/08/24 16:16:43;;;;;;;;;;;;;;;22.33;85.80566;101137.1;;;;-80
2023/08/24 16:21:47;;;;;;;;;;;;;;;22.29;84.01758;101125;;;;-81
2023/08/24 16:26:44;;;;;;;;;;;;;;;22.26;82.71582;101114.2;;;;-82
2023/08/24 16:31:35;;;;;;;8.1;3.4;;;;;;;;;;;;;-80
2023/08/24 16:31:48;;;;;;;;;;;;;;;22.13;82.7832;101069.9;;;;-80
2023/08/24 16:36:47;;;;;;;;;;;;;;;22.55;82.09863;101116.3;;;;-80
2023/08/24 16:41:46;;;;;;;;;;;;;;;22.53;81.2207;101094.9;;;;-80
2023/08/24 16:46:43;;;;;;;;;;;;;;;22.64;81.68359;101107.3;;;;-80
2023/08/24 16:51:43;;;;;;;;;;;;;;;22.63;82.30859;101109.2;;;;-80
2023/08/24 16:56:44;;;;;;;;;;;;;;;22.61;82.4043;101115.3;;;;-80
2023/08/24 17:01:39;;;;;;;11.9;6.9;;;;;;;;;;;;;-81
2023/08/24 17:01:49;;;;;;;;;;;;;;;22.56;82.88477;101099.6;;;;-78
2023/08/24 17:06:43;;;;;;;;;;;;;;;22.54;84.27832;101105.5;;;;-81
2023/08/24 17:11:46;;;;;;;;;;;;;;;22.52;84.66113;101104.3;;;;-79
2023/08/24 17:16:44;;;;;;;;;;;;;;;22.46;85.86621;101104.4;;;;-82
2023/08/24 17:21:46;;;;;;;;;;;;;;;22.36;86.77734;101096.1;;;;-81
2023/08/24 17:26:43;;;;;;;;;;;;;;;22.31;87.51563;101089.2;;;;-80
2023/08/24 17:31:41;;;;;;;15.2;10.7;;;;;;;;;;;;;-81
2023/08/24 17:31:52;;;;;;;;;;;;;;;22.26;87.98047;101079.6;;;;-78
2023/08/24 17:36:43;;;;;;;;;;;;;;;22.28;88.41504;101083.4;;;;-82
2023/08/24 17:41:46;;;;;;;;;;;;;;;22.23;89.25586;101076;;;;-81
2023/08/24 17:46:46;;;;;;;;;;;;;;;22.21;89.20703;101074.4;;;;-80
2023/08/24 17:51:46;;;;;;;;;;;;;;;22.2;89.27148;101062.5;;;;-80
2023/08/24 17:56:44;;;;;;;;;;;;;;;22.13;89.79199;101046;;;;-81
2023/08/24 18:01:46;;;;;;;;;;;;;;;22.01;92.26953;101049.6;;;;-81
2023/08/24 18:02:02;;;;;;;23.5;15.8;;;;;;;;;;;;;-81
2023/08/24 18:06:43;;;;;;;;;;;;;;;21.96;92.68848;101044.1;;;;-81
2023/08/24 18:11:46;;;;;;;;;;;;;;;21.86;93.77832;101037.9;;;;-81
2023/08/24 18:16:44;;;;;;;;;;;;;;;21.79;95.2998;101039;;;;-81
2023/08/24 18:21:46;;;;;;;;;;;;;;;21.68;96.54004;101032.1;;;;-80
2023/08/24 18:26:43;;;;;;;;;;;;;;;21.56;98.44531;101030.5;;;;-81
2023/08/24 18:31:44;;;;;;;;;;;;;;;21.46;99.53027;101022;;;;-81
2023/08/24 18:32:04;;;;;;;26.4;19.2;;;;;;;;;;;;;-81
2023/08/24 18:36:44;;;;;;;;;;;;;;;21.41;100;101005.9;;;;-81
2023/08/24 18:41:43;;;;;;;;;;;;;;;21.35;100;100987;;;;-81
2023/08/24 18:46:45;;;;;;;;;;;;;;;21.38;100;100990.4;;;;-80
2023/08/24 18:51:43;;;;;;;;;;;;;;;21.3;100;100978.9;;;;-80
2023/08/24 18:56:44;;;;;;;;;;;;;;;21.27;100;100997;;;;-81
2023/08/24 19:01:44;;;;;;;;;;;;;;;21.26;100;101031.4;;;;-80
2023/08/24 19:01:58;;;;;;;35.6;22.5;;;;;;;;;;;;;-80
2023/08/24 19:06:43;;;;;;;;;;;;;;;21.27;100;101045.4;;;;-81
2023/08/24 19:11:43;;;;;;;;;;;;;;;21.23;100;101051.8;;;;-79
2023/08/24 19:16:44;;;;;;;;;;;;;;;21.13;100;101055.8;;;;-82
2023/08/24 19:21:44;;;;;;;;;;;;;;;20.98;100;101053;;;;-79
2023/08/24 19:26:44;;;;;;;;;;;;;;;20.91;100;101035.6;;;;-81
2023/08/24 19:31:43;;;;;;;;;;;;;;;20.93;100;101029.1;;;;-80
2023/08/24 19:31:57;;;;;;;22.1;15.2;;;;;;;;;;;;;-77
2023/08/24 19:36:45;;;;;;;;;;;;;;;20.89;100;101015.8;;;;-79
2023/08/24 19:41:46;;;;;;;;;;;;;;;20.85;100;100990.3;;;;-81
2023/08/24 19:46:44;;;;;;;;;;;;;;;20.82;100;100980;;;;-80
2023/08/24 19:51:46;;;;;;;;;;;;;;;20.84;100;100981.7;;;;-81
2023/08/24 19:56:43;;;;;;;;;;;;;;;20.85;100;100952.2;;;;-81
2023/08/24 20:01:47;;;;;;;;;;;;;;;20.85;100;100948.3;;;;-80
2023/08/24 20:02:06;;;;;;;14;10.2;;;;;;;;;;;;;-82
2023/08/24 20:06:44;;;;;;;;;;;;;;;20.84;100;100979.3;;;;-80
2023/08/24 20:11:48;;;;;;;;;;;;;;;20.78;100;101005.2;;;;-81
2023/08/24 20:16:43;;;;;;;;;;;;;;;20.55;100;101020.4;;;;-81
2023/08/24 20:21:44;;;;;;;;;;;;;;;20.47;100;101003.7;;;;-82
2023/08/24 20:26:45;;;;;;;;;;;;;;;20.38;100;101017.8;;;;-80
2023/08/24 20:31:43;;;;;;;;;;;;;;;20.16;100;101013.1;;;;-81
2023/08/24 20:32:04;;;;;;;21;14.2;;;;;;;;;;;;;-82
2023/08/24 20:36:46;;;;;;;;;;;;;;;20.08;100;101006.1;;;;-81
2023/08/24 20:41:46;;;;;;;;;;;;;;;20.04;100;100997.6;;;;-82
2023/08/24 20:46:49;;;;;;;;;;;;;;;19.95;100;100962.2;;;;-81
2023/08/24 20:51:44;;;;;;;;;;;;;;;20.11;100;100973;;;;-80
2023/08/24 20:56:51;;;;;;;;;;;;;;;20.1;100;100988.2;;;;-81
2023/08/24 21:01:44;;;;;;;;;;;;;;;20.07;100;100981.3;;;;-81
2023/08/24 21:02:10;;;;;;;21.9;15.7;;;;;;;;;;;;;-81
2023/08/24 21:06:43;;;;;;;;;;;;;;;20.09;100;100986;;;;-82
2023/08/24 21:11:45;;;;;;;;;;;;;;;20.13;100;100989.5;;;;-82
2023/08/24 21:16:47;;;;;;;;;;;;;;;20.15;100;100997.8;;;;-83
2023/08/24 21:21:44;;;;;;;;;;;;;;;20.12;100;100980.4;;;;-83
2023/08/24 21:26:43;;;;;;;;;;;;;;;20.07;100;101012.2;;;;-82
2023/08/24 21:31:46;;;;;;;;;;;;;;;20;100;100971.2;;;;-80
2023/08/24 21:32:11;;;;;;;26.3;19;;;;;;;;;;;;;-79
2023/08/24 21:36:43;;;;;;;;;;;;;;;19.93;100;100964;;;;-79
2023/08/24 21:41:43;;;;;;;;;;;;;;;19.88;100;100977.4;;;;-81
2023/08/24 21:46:43;;;;;;;;;;;;;;;19.83;100;100994.4;;;;-81
2023/08/24 21:51:43;;;;;;;;;;;;;;;19.74;100;100999;;;;-78
2023/08/24 21:56:44;;;;;;;;;;;;;;;19.67;100;101012.5;;;;-80
2023/08/24 22:01:44;;;;;;;;;;;;;;;19.59;100;101021.5;;;;-80
2023/08/24 22:02:15;;;;;;;40.5;24;;;;;;;;;;;;;-81
2023/08/24 22:06:49;;;;;;;;;;;;;;;19.55;100;101022.6;;;;-79
2023/08/24 22:11:45;;;;;;;;;;;;;;;19.47;100;101021.8;;;;-79
2023/08/24 22:16:43;;;;;;;;;;;;;;;19.44;100;101022;;;;-82
2023/08/24 22:21:44;;;;;;;;;;;;;;;19.42;100;101029.1;;;;-81
2023/08/24 22:26:45;;;;;;;;;;;;;;;19.39;100;101023.4;;;;-80
2023/08/24 22:31:43;;;;;;;;;;;;;;;19.34;100;101010.7;;;;-80
2023/08/24 22:32:18;;;;;;;48.4;29.7;;;;;;;;;;;;;-79
2023/08/24 22:36:48;;;;;;;;;;;;;;;19.27;100;101014.5;;;;-81
2023/08/24 22:41:43;;;;;;;;;;;;;;;19.2;100;101011.7;;;;-81
2023/08/24 22:46:44;;;;;;;;;;;;;;;19.21;100;101015.4;;;;-80
2023/08/24 22:51:46;;;;;;;;;;;;;;;19.22;100;101002.9;;;;-80
2023/08/24 22:56:51;;;;;;;;;;;;;;;19.26;100;101005.9;;;;-79
2023/08/24 23:01:46;;;;;;;;;;;;;;;19.25;100;101014.9;;;;-80
2023/08/24 23:02:21;;;;;;;42.4;27;;;;;;;;;;;;;-80
2023/08/24 23:06:51;;;;;;;;;;;;;;;19.22;100;101028;;;;-80
2023/08/24 23:11:43;;;;;;;;;;;;;;;19.22;100;101028.8;;;;-82
2023/08/24 23:16:43;;;;;;;;;;;;;;;19.25;100;101023.2;;;;-80
2023/08/24 23:21:48;;;;;;;;;;;;;;;19.29;100;101016;;;;-80
2023/08/24 23:26:43;;;;;;;;;;;;;;;19.35;100;101020.1;;;;-80
2023/08/24 23:31:44;;;;;;;;;;;;;;;19.41;100;101011.6;;;;-81
2023/08/24 23:32:25;;;;;;;38.7;24.3;;;;;;;;;;;;;-79
2023/08/24 23:36:46;;;;;;;;;;;;;;;19.39;100;101008.4;;;;-81
2023/08/24 23:41:43;;;;;;;;;;;;;;;19.32;100;101009.2;;;;-79
2023/08/24 23:46:43;;;;;;;;;;;;;;;19.19;100;100997.2;;;;-81
2023/08/24 23:51:44;;;;;;;;;;;;;;;19.03;100;101001.9;;;;-80
2023/08/24 23:56:43;;;;;;;;;;;;;;;18.96;100;101005.6;;;;-80
